Terminal Aerodrome Forecast
Issued by NWS

Home | Current Version | Previous Version | Graphics & Text | Print | Product List | Glossary On
Versions: 1 2 3 4 5 6 7 8 9 10 11 12 13 14 15
745
FTUS43 KOAX 132351
TAFCDR
TAF
KCDR 132351Z 1400/1424 32011KT P6SM BKN080 OVC150
     FM140300 30012KT P6SM BKN050 OVC100
     FM141200 30016G23KT P6SM VCSH OVC050
     FM141600 32022G32KT P6SM BKN050 BKN100=

USA.gov is the U.S. government's official web portal to all federal, state and local government web resources and services.